sensor_id;sensor_type;location;lat;lon;timestamp;temperature;humidity
57709;SHT35;42558;52.388;13.390;2023-06-22T00:01:54;18.91;81.84
57709;SHT35;42558;52.388;13.390;2023-06-22T00:04:24;18.88;81.92
57709;SHT35;42558;52.388;13.390;2023-06-22T00:06:55;18.84;81.90
57709;SHT35;42558;52.388;13.390;2023-06-22T00:09:25;18.82;82.00
57709;SHT35;42558;52.388;13.390;2023-06-22T00:11:54;18.80;81.96
57709;SHT35;42558;52.388;13.390;2023-06-22T00:14:24;18.78;82.03
57709;SHT35;42558;52.388;13.390;2023-06-22T00:16:54;18.76;82.18
57709;SHT35;42558;52.388;13.390;2023-06-22T00:19:25;18.73;82.30
57709;SHT35;42558;52.388;13.390;2023-06-22T00:21:56;18.69;82.32
57709;SHT35;42558;52.388;13.390;2023-06-22T00:24:28;18.67;82.44
57709;SHT35;42558;52.388;13.390;2023-06-22T00:26:58;18.68;82.61
57709;SHT35;42558;52.388;13.390;2023-06-22T00:29:28;18.67;82.64
57709;SHT35;42558;52.388;13.390;2023-06-22T00:31:58;18.66;82.64
57709;SHT35;42558;52.388;13.390;2023-06-22T00:34:28;18.65;82.64
57709;SHT35;42558;52.388;13.390;2023-06-22T00:36:58;18.63;82.60
57709;SHT35;42558;52.388;13.390;2023-06-22T00:39:28;18.63;82.67
57709;SHT35;42558;52.388;13.390;2023-06-22T00:41:59;18.64;82.65
57709;SHT35;42558;52.388;13.390;2023-06-22T00:44:29;18.65;82.76
57709;SHT35;42558;52.388;13.390;2023-06-22T00:46:59;18.64;82.71
57709;SHT35;42558;52.388;13.390;2023-06-22T00:49:29;18.63;82.64
57709;SHT35;42558;52.388;13.390;2023-06-22T00:52:00;18.63;82.58
57709;SHT35;42558;52.388;13.390;2023-06-22T00:54:30;18.66;82.63
57709;SHT35;42558;52.388;13.390;2023-06-22T00:57:00;18.68;82.57
57709;SHT35;42558;52.388;13.390;2023-06-22T00:59:30;18.70;82.44
57709;SHT35;42558;52.388;13.390;2023-06-22T01:02:01;18.74;82.25
57709;SHT35;42558;52.388;13.390;2023-06-22T01:04:34;18.79;82.13
57709;SHT35;42558;52.388;13.390;2023-06-22T01:07:10;18.83;81.91
57709;SHT35;42558;52.388;13.390;2023-06-22T01:09:59;18.86;81.72
57709;SHT35;42558;52.388;13.390;2023-06-22T01:12:50;18.89;81.70
57709;SHT35;42558;52.388;13.390;2023-06-22T01:15:30;18.90;81.56
57709;SHT35;42558;52.388;13.390;2023-06-22T01:18:04;18.90;81.49
57709;SHT35;42558;52.388;13.390;2023-06-22T01:20:38;18.92;81.50
57709;SHT35;42558;52.388;13.390;2023-06-22T01:26:06;18.97;81.52
57709;SHT35;42558;52.388;13.390;2023-06-22T01:28:49;19.10;81.28
57709;SHT35;42558;52.388;13.390;2023-06-22T01:31:22;19.15;80.82
57709;SHT35;42558;52.388;13.390;2023-06-22T01:33:57;19.16;80.68
57709;SHT35;42558;52.388;13.390;2023-06-22T01:36:33;19.16;80.55
57709;SHT35;42558;52.388;13.390;2023-06-22T01:39:05;19.16;80.65
57709;SHT35;42558;52.388;13.390;2023-06-22T01:41:37;19.15;80.96
57709;SHT35;42558;52.388;13.390;2023-06-22T01:44:09;19.16;81.00
57709;SHT35;42558;52.388;13.390;2023-06-22T01:46:41;19.16;81.13
57709;SHT35;42558;52.388;13.390;2023-06-22T01:49:11;19.17;81.22
57709;SHT35;42558;52.388;13.390;2023-06-22T01:51:42;19.17;81.18
57709;SHT35;42558;52.388;13.390;2023-06-22T01:54:13;19.18;81.11
57709;SHT35;42558;52.388;13.390;2023-06-22T01:56:42;19.19;81.10
57709;SHT35;42558;52.388;13.390;2023-06-22T01:59:26;19.19;81.11
57709;SHT35;42558;52.388;13.390;2023-06-22T02:02:04;19.21;81.10
57709;SHT35;42558;52.388;13.390;2023-06-22T02:04:51;19.26;81.17
57709;SHT35;42558;52.388;13.390;2023-06-22T02:07:39;19.34;81.05
57709;SHT35;42558;52.388;13.390;2023-06-22T02:10:14;19.42;80.78
57709;SHT35;42558;52.388;13.390;2023-06-22T02:12:47;19.41;80.58
57709;SHT35;42558;52.388;13.390;2023-06-22T02:15:19;19.40;80.68
57709;SHT35;42558;52.388;13.390;2023-06-22T02:17:47;19.39;80.50
57709;SHT35;42558;52.388;13.390;2023-06-22T02:20:15;19.34;80.53
57709;SHT35;42558;52.388;13.390;2023-06-22T02:22:45;19.34;80.69
57709;SHT35;42558;52.388;13.390;2023-06-22T02:25:15;19.33;80.73
57709;SHT35;42558;52.388;13.390;2023-06-22T02:27:45;19.32;80.84
57709;SHT35;42558;52.388;13.390;2023-06-22T02:30:15;19.32;81.00
57709;SHT35;42558;52.388;13.390;2023-06-22T02:32:45;19.32;80.92
57709;SHT35;42558;52.388;13.390;2023-06-22T02:35:15;19.32;80.96
57709;SHT35;42558;52.388;13.390;2023-06-22T02:37:45;19.32;81.04
57709;SHT35;42558;52.388;13.390;2023-06-22T02:40:16;19.33;81.30
57709;SHT35;42558;52.388;13.390;2023-06-22T02:42:46;19.36;81.43
57709;SHT35;42558;52.388;13.390;2023-06-22T02:45:16;19.40;81.40
57709;SHT35;42558;52.388;13.390;2023-06-22T02:47:46;19.43;81.25
57709;SHT35;42558;52.388;13.390;2023-06-22T02:50:17;19.45;81.29
57709;SHT35;42558;52.388;13.390;2023-06-22T02:52:47;19.49;81.18
57709;SHT35;42558;52.388;13.390;2023-06-22T02:55:17;19.49;81.10
57709;SHT35;42558;52.388;13.390;2023-06-22T02:57:47;19.48;81.19
57709;SHT35;42558;52.388;13.390;2023-06-22T03:00:21;19.52;81.01
57709;SHT35;42558;52.388;13.390;2023-06-22T03:02:51;19.55;80.93
57709;SHT35;42558;52.388;13.390;2023-06-22T03:05:21;19.57;80.83
57709;SHT35;42558;52.388;13.390;2023-06-22T03:07:50;19.55;80.70
57709;SHT35;42558;52.388;13.390;2023-06-22T03:10:21;19.53;80.71
57709;SHT35;42558;52.388;13.390;2023-06-22T03:12:51;19.52;80.85
57709;SHT35;42558;52.388;13.390;2023-06-22T03:15:20;19.50;80.99
57709;SHT35;42558;52.388;13.390;2023-06-22T03:17:51;19.45;81.08
57709;SHT35;42558;52.388;13.390;2023-06-22T03:20:21;19.45;81.18
57709;SHT35;42558;52.388;13.390;2023-06-22T03:22:52;19.43;81.13
57709;SHT35;42558;52.388;13.390;2023-06-22T03:25:22;19.43;81.33
57709;SHT35;42558;52.388;13.390;2023-06-22T03:27:52;19.41;81.48
57709;SHT35;42558;52.388;13.390;2023-06-22T03:30:22;19.41;81.49
57709;SHT35;42558;52.388;13.390;2023-06-22T03:32:52;19.42;81.44
57709;SHT35;42558;52.388;13.390;2023-06-22T03:35:22;19.38;81.70
57709;SHT35;42558;52.388;13.390;2023-06-22T03:37:52;19.38;81.80
57709;SHT35;42558;52.388;13.390;2023-06-22T03:40:22;19.39;81.77
57709;SHT35;42558;52.388;13.390;2023-06-22T03:42:52;19.40;81.70
57709;SHT35;42558;52.388;13.390;2023-06-22T03:45:22;19.40;81.79
57709;SHT35;42558;52.388;13.390;2023-06-22T03:47:52;19.40;81.89
57709;SHT35;42558;52.388;13.390;2023-06-22T03:50:22;19.41;81.98
57709;SHT35;42558;52.388;13.390;2023-06-22T03:52:52;19.43;81.94
57709;SHT35;42558;52.388;13.390;2023-06-22T03:55:22;19.45;81.94
57709;SHT35;42558;52.388;13.390;2023-06-22T03:57:52;19.46;81.92
57709;SHT35;42558;52.388;13.390;2023-06-22T04:00:24;19.47;81.91
57709;SHT35;42558;52.388;13.390;2023-06-22T04:02:54;19.49;81.81
57709;SHT35;42558;52.388;13.390;2023-06-22T04:05:23;19.50;81.77
57709;SHT35;42558;52.388;13.390;2023-06-22T04:07:54;19.54;81.73
57709;SHT35;42558;52.388;13.390;2023-06-22T04:10:24;19.56;81.68
57709;SHT35;42558;52.388;13.390;2023-06-22T04:12:54;19.58;81.78
57709;SHT35;42558;52.388;13.390;2023-06-22T04:15:24;19.62;81.70
57709;SHT35;42558;52.388;13.390;2023-06-22T04:17:54;19.69;81.56
57709;SHT35;42558;52.388;13.390;2023-06-22T04:20:25;19.73;81.45
57709;SHT35;42558;52.388;13.390;2023-06-22T04:22:58;19.77;81.18
57709;SHT35;42558;52.388;13.390;2023-06-22T04:25:28;19.82;80.99
57709;SHT35;42558;52.388;13.390;2023-06-22T04:27:58;19.82;80.85
57709;SHT35;42558;52.388;13.390;2023-06-22T04:30:28;19.85;80.77
57709;SHT35;42558;52.388;13.390;2023-06-22T04:33:01;19.92;80.56
57709;SHT35;42558;52.388;13.390;2023-06-22T04:35:31;19.93;80.41
57709;SHT35;42558;52.388;13.390;2023-06-22T04:38:01;20.00;80.41
57709;SHT35;42558;52.388;13.390;2023-06-22T04:40:33;20.07;80.19
57709;SHT35;42558;52.388;13.390;2023-06-22T04:43:03;20.18;79.86
57709;SHT35;42558;52.388;13.390;2023-06-22T04:45:35;20.26;79.39
57709;SHT35;42558;52.388;13.390;2023-06-22T04:48:07;20.31;79.07
57709;SHT35;42558;52.388;13.390;2023-06-22T04:50:39;20.31;78.64
57709;SHT35;42558;52.388;13.390;2023-06-22T04:53:09;20.39;78.53
57709;SHT35;42558;52.388;13.390;2023-06-22T04:55:42;20.45;77.98
57709;SHT35;42558;52.388;13.390;2023-06-22T04:58:15;20.56;77.61
57709;SHT35;42558;52.388;13.390;2023-06-22T05:00:45;20.68;77.27
57709;SHT35;42558;52.388;13.390;2023-06-22T05:03:17;20.76;76.86
57709;SHT35;42558;52.388;13.390;2023-06-22T05:05:49;20.66;76.34
57709;SHT35;42558;52.388;13.390;2023-06-22T05:08:19;20.66;76.58
57709;SHT35;42558;52.388;13.390;2023-06-22T05:10:48;20.66;76.11
57709;SHT35;42558;52.388;13.390;2023-06-22T05:13:34;20.54;75.97
57709;SHT35;42558;52.388;13.390;2023-06-22T05:16:04;20.58;75.92
57709;SHT35;42558;52.388;13.390;2023-06-22T05:18:35;20.65;75.49
57709;SHT35;42558;52.388;13.390;2023-06-22T05:21:06;20.90;75.18
57709;SHT35;42558;52.388;13.390;2023-06-22T05:23:36;21.18;74.70
57709;SHT35;42558;52.388;13.390;2023-06-22T05:26:06;21.46;74.16
57709;SHT35;42558;52.388;13.390;2023-06-22T05:28:39;21.44;73.60
57709;SHT35;42558;52.388;13.390;2023-06-22T05:31:08;21.47;73.42
57709;SHT35;42558;52.388;13.390;2023-06-22T05:33:39;21.38;73.01
57709;SHT35;42558;52.388;13.390;2023-06-22T05:36:09;21.40;73.12
57709;SHT35;42558;52.388;13.390;2023-06-22T05:38:39;21.54;72.61
57709;SHT35;42558;52.388;13.390;2023-06-22T05:41:10;21.41;71.32
57709;SHT35;42558;52.388;13.390;2023-06-22T05:43:48;21.31;71.50
57709;SHT35;42558;52.388;13.390;2023-06-22T05:46:18;21.34;71.98
57709;SHT35;42558;52.388;13.390;2023-06-22T05:48:49;21.49;72.71
57709;SHT35;42558;52.388;13.390;2023-06-22T05:51:19;21.51;71.65
57709;SHT35;42558;52.388;13.390;2023-06-22T05:53:49;21.43;71.29
57709;SHT35;42558;52.388;13.390;2023-06-22T05:56:19;21.46;71.80
57709;SHT35;42558;52.388;13.390;2023-06-22T05:58:49;21.43;71.43
57709;SHT35;42558;52.388;13.390;2023-06-22T06:01:19;21.59;71.89
57709;SHT35;42558;52.388;13.390;2023-06-22T06:03:49;21.80;71.73
57709;SHT35;42558;52.388;13.390;2023-06-22T06:06:22;21.88;71.64
57709;SHT35;42558;52.388;13.390;2023-06-22T06:08:58;22.18;70.77
57709;SHT35;42558;52.388;13.390;2023-06-22T06:11:29;22.57;69.13
57709;SHT35;42558;52.388;13.390;2023-06-22T06:13:59;22.75;67.52
57709;SHT35;42558;52.388;13.390;2023-06-22T06:16:29;22.81;67.16
57709;SHT35;42558;52.388;13.390;2023-06-22T06:18:59;22.72;66.65
57709;SHT35;42558;52.388;13.390;2023-06-22T06:21:29;22.92;66.41
57709;SHT35;42558;52.388;13.390;2023-06-22T06:23:59;23.04;65.38
57709;SHT35;42558;52.388;13.390;2023-06-22T06:26:29;22.87;65.78
57709;SHT35;42558;52.388;13.390;2023-06-22T06:29:01;22.76;64.57
57709;SHT35;42558;52.388;13.390;2023-06-22T06:31:29;22.69;65.15
57709;SHT35;42558;52.388;13.390;2023-06-22T06:34:00;22.97;64.77
57709;SHT35;42558;52.388;13.390;2023-06-22T06:36:30;23.25;64.77
57709;SHT35;42558;52.388;13.390;2023-06-22T06:38:58;23.20;64.35
57709;SHT35;42558;52.388;13.390;2023-06-22T06:41:27;23.20;65.03
57709;SHT35;42558;52.388;13.390;2023-06-22T06:43:55;23.16;63.71
57709;SHT35;42558;52.388;13.390;2023-06-22T06:46:24;23.32;63.53
57709;SHT35;42558;52.388;13.390;2023-06-22T06:48:52;23.93;63.14
57709;SHT35;42558;52.388;13.390;2023-06-22T06:51:22;24.53;61.76
57709;SHT35;42558;52.388;13.390;2023-06-22T06:53:52;24.74;59.75
57709;SHT35;42558;52.388;13.390;2023-06-22T06:56:22;25.00;60.14
57709;SHT35;42558;52.388;13.390;2023-06-22T06:58:52;25.20;57.00
57709;SHT35;42558;52.388;13.390;2023-06-22T07:01:22;25.23;57.34
57709;SHT35;42558;52.388;13.390;2023-06-22T07:03:52;25.01;56.15
57709;SHT35;42558;52.388;13.390;2023-06-22T07:06:23;24.92;56.64
57709;SHT35;42558;52.388;13.390;2023-06-22T07:08:55;25.07;56.18
57709;SHT35;42558;52.388;13.390;2023-06-22T07:11:23;25.32;57.33
57709;SHT35;42558;52.388;13.390;2023-06-22T07:13:53;25.71;56.00
57709;SHT35;42558;52.388;13.390;2023-06-22T07:16:23;25.63;55.15
57709;SHT35;42558;52.388;13.390;2023-06-22T07:18:54;25.28;57.87
57709;SHT35;42558;52.388;13.390;2023-06-22T07:21:24;25.60;57.94
57709;SHT35;42558;52.388;13.390;2023-06-22T07:23:54;25.68;57.47
57709;SHT35;42558;52.388;13.390;2023-06-22T07:26:24;25.67;57.06
57709;SHT35;42558;52.388;13.390;2023-06-22T07:28:54;25.86;57.17
57709;SHT35;42558;52.388;13.390;2023-06-22T07:31:24;25.75;57.65
57709;SHT35;42558;52.388;13.390;2023-06-22T07:33:55;25.34;58.23
57709;SHT35;42558;52.388;13.390;2023-06-22T07:36:24;25.02;58.31
57709;SHT35;42558;52.388;13.390;2023-06-22T07:38:54;24.94;59.77
57709;SHT35;42558;52.388;13.390;2023-06-22T07:41:24;24.92;57.93
57709;SHT35;42558;52.388;13.390;2023-06-22T07:43:53;24.86;57.69
57709;SHT35;42558;52.388;13.390;2023-06-22T07:46:23;24.80;57.65
57709;SHT35;42558;52.388;13.390;2023-06-22T07:48:54;24.82;58.05
57709;SHT35;42558;52.388;13.390;2023-06-22T07:51:25;24.69;57.70
57709;SHT35;42558;52.388;13.390;2023-06-22T07:53:55;24.85;57.26
57709;SHT35;42558;52.388;13.390;2023-06-22T07:56:25;25.07;57.10
57709;SHT35;42558;52.388;13.390;2023-06-22T07:58:55;24.98;55.18
57709;SHT35;42558;52.388;13.390;2023-06-22T08:01:26;24.56;55.73
57709;SHT35;42558;52.388;13.390;2023-06-22T08:03:55;24.61;55.82
57709;SHT35;42558;52.388;13.390;2023-06-22T08:06:23;24.70;55.36
57709;SHT35;42558;52.388;13.390;2023-06-22T08:08:51;24.79;55.09
57709;SHT35;42558;52.388;13.390;2023-06-22T08:11:23;24.97;56.38
57709;SHT35;42558;52.388;13.390;2023-06-22T08:13:54;25.21;55.55
57709;SHT35;42558;52.388;13.390;2023-06-22T08:16:25;25.23;55.29
57709;SHT35;42558;52.388;13.390;2023-06-22T08:18:55;25.11;54.69
57709;SHT35;42558;52.388;13.390;2023-06-22T08:21:25;24.97;54.61
57709;SHT35;42558;52.388;13.390;2023-06-22T08:23:55;24.94;55.09
57709;SHT35;42558;52.388;13.390;2023-06-22T08:26:25;24.93;54.54
57709;SHT35;42558;52.388;13.390;2023-06-22T08:28:55;24.94;54.36
57709;SHT35;42558;52.388;13.390;2023-06-22T08:31:25;24.99;53.75
57709;SHT35;42558;52.388;13.390;2023-06-22T08:33:55;25.03;53.95
57709;SHT35;42558;52.388;13.390;2023-06-22T08:36:25;25.24;53.01
57709;SHT35;42558;52.388;13.390;2023-06-22T08:38:58;25.14;52.58
57709;SHT35;42558;52.388;13.390;2023-06-22T08:41:32;25.30;52.41
57709;SHT35;42558;52.388;13.390;2023-06-22T08:44:02;25.51;53.08
57709;SHT35;42558;52.388;13.390;2023-06-22T08:46:33;25.67;52.86
57709;SHT35;42558;52.388;13.390;2023-06-22T08:49:03;25.55;52.11
57709;SHT35;42558;52.388;13.390;2023-06-22T08:51:33;25.51;51.85
57709;SHT35;42558;52.388;13.390;2023-06-22T08:54:03;25.50;52.61
57709;SHT35;42558;52.388;13.390;2023-06-22T08:56:34;25.71;52.73
57709;SHT35;42558;52.388;13.390;2023-06-22T08:59:04;26.01;52.89
57709;SHT35;42558;52.388;13.390;2023-06-22T09:01:35;26.54;52.88
57709;SHT35;42558;52.388;13.390;2023-06-22T09:04:05;26.51;50.95
57709;SHT35;42558;52.388;13.390;2023-06-22T09:06:39;26.08;51.15
57709;SHT35;42558;52.388;13.390;2023-06-22T09:09:15;25.87;51.36
57709;SHT35;42558;52.388;13.390;2023-06-22T09:11:43;26.09;52.99
57709;SHT35;42558;52.388;13.390;2023-06-22T09:14:14;26.14;51.09
57709;SHT35;42558;52.388;13.390;2023-06-22T09:16:44;26.14;51.38
57709;SHT35;42558;52.388;13.390;2023-06-22T09:19:14;25.95;51.03
57709;SHT35;42558;52.388;13.390;2023-06-22T09:21:44;25.74;51.72
57709;SHT35;42558;52.388;13.390;2023-06-22T09:24:14;25.97;52.15
57709;SHT35;42558;52.388;13.390;2023-06-22T09:26:44;26.14;52.13
57709;SHT35;42558;52.388;13.390;2023-06-22T09:29:14;26.34;50.68
57709;SHT35;42558;52.388;13.390;2023-06-22T09:31:44;26.35;51.19
57709;SHT35;42558;52.388;13.390;2023-06-22T09:34:13;26.27;50.66
57709;SHT35;42558;52.388;13.390;2023-06-22T09:36:42;26.18;50.85
57709;SHT35;42558;52.388;13.390;2023-06-22T09:39:12;26.15;50.05
57709;SHT35;42558;52.388;13.390;2023-06-22T09:41:43;25.80;49.59
57709;SHT35;42558;52.388;13.390;2023-06-22T09:44:14;25.75;49.49
57709;SHT35;42558;52.388;13.390;2023-06-22T09:46:44;25.96;49.85
57709;SHT35;42558;52.388;13.390;2023-06-22T09:49:14;25.93;49.29
57709;SHT35;42558;52.388;13.390;2023-06-22T09:51:44;25.91;50.72
57709;SHT35;42558;52.388;13.390;2023-06-22T09:54:14;25.96;49.17
57709;SHT35;42558;52.388;13.390;2023-06-22T09:56:44;26.04;49.85
57709;SHT35;42558;52.388;13.390;2023-06-22T09:59:14;26.16;49.77
57709;SHT35;42558;52.388;13.390;2023-06-22T10:01:47;26.19;50.06
57709;SHT35;42558;52.388;13.390;2023-06-22T10:04:17;26.15;48.96
57709;SHT35;42558;52.388;13.390;2023-06-22T10:06:48;26.34;48.53
57709;SHT35;42558;52.388;13.390;2023-06-22T10:09:17;26.39;49.15
57709;SHT35;42558;52.388;13.390;2023-06-22T10:11:48;26.33;49.31
57709;SHT35;42558;52.388;13.390;2023-06-22T10:14:18;26.09;50.10
57709;SHT35;42558;52.388;13.390;2023-06-22T10:16:48;26.03;50.70
57709;SHT35;42558;52.388;13.390;2023-06-22T10:19:18;26.11;49.61
57709;SHT35;42558;52.388;13.390;2023-06-22T10:21:48;25.99;49.92
57709;SHT35;42558;52.388;13.390;2023-06-22T10:24:18;25.82;50.33
57709;SHT35;42558;52.388;13.390;2023-06-22T10:26:48;26.15;49.87
57709;SHT35;42558;52.388;13.390;2023-06-22T10:29:15;26.13;48.93
57709;SHT35;42558;52.388;13.390;2023-06-22T10:31:45;25.98;48.86
57709;SHT35;42558;52.388;13.390;2023-06-22T10:34:14;25.88;49.14
57709;SHT35;42558;52.388;13.390;2023-06-22T10:36:43;25.93;48.83
57709;SHT35;42558;52.388;13.390;2023-06-22T10:39:15;25.87;48.50
57709;SHT35;42558;52.388;13.390;2023-06-22T10:41:45;26.01;49.52
57709;SHT35;42558;52.388;13.390;2023-06-22T10:44:15;26.45;48.49
57709;SHT35;42558;52.388;13.390;2023-06-22T10:46:46;26.96;48.82
57709;SHT35;42558;52.388;13.390;2023-06-22T10:49:17;27.58;47.14
57709;SHT35;42558;52.388;13.390;2023-06-22T10:51:47;27.87;46.74
57709;SHT35;42558;52.388;13.390;2023-06-22T10:54:17;28.18;46.05
57709;SHT35;42558;52.388;13.390;2023-06-22T10:56:48;27.33;45.73
57709;SHT35;42558;52.388;13.390;2023-06-22T10:59:17;27.21;47.35
57709;SHT35;42558;52.388;13.390;2023-06-22T11:01:45;27.77;47.44
57709;SHT35;42558;52.388;13.390;2023-06-22T11:04:13;27.80;46.28
57709;SHT35;42558;52.388;13.390;2023-06-22T11:06:42;27.85;46.24
57709;SHT35;42558;52.388;13.390;2023-06-22T11:09:11;28.11;46.88
57709;SHT35;42558;52.388;13.390;2023-06-22T11:11:43;27.75;46.90
57709;SHT35;42558;52.388;13.390;2023-06-22T11:14:11;27.83;47.36
57709;SHT35;42558;52.388;13.390;2023-06-22T11:16:40;27.64;47.73
57709;SHT35;42558;52.388;13.390;2023-06-22T11:19:08;27.99;47.97
57709;SHT35;42558;52.388;13.390;2023-06-22T11:21:37;27.94;47.39
57709;SHT35;42558;52.388;13.390;2023-06-22T11:24:05;27.95;46.74
57709;SHT35;42558;52.388;13.390;2023-06-22T11:26:34;28.02;46.63
57709;SHT35;42558;52.388;13.390;2023-06-22T11:29:02;28.16;46.73
57709;SHT35;42558;52.388;13.390;2023-06-22T11:31:35;28.06;46.17
57709;SHT35;42558;52.388;13.390;2023-06-22T11:34:06;27.74;46.63
57709;SHT35;42558;52.388;13.390;2023-06-22T11:36:36;27.93;47.11
57709;SHT35;42558;52.388;13.390;2023-06-22T11:39:07;27.75;46.24
57709;SHT35;42558;52.388;13.390;2023-06-22T11:41:39;27.77;46.72
57709;SHT35;42558;52.388;13.390;2023-06-22T11:44:09;28.08;46.54
57709;SHT35;42558;52.388;13.390;2023-06-22T11:46:39;28.00;45.91
57709;SHT35;42558;52.388;13.390;2023-06-22T11:49:08;27.93;46.21
57709;SHT35;42558;52.388;13.390;2023-06-22T11:51:36;28.03;45.54
57709;SHT35;42558;52.388;13.390;2023-06-22T11:54:04;27.84;46.23
57709;SHT35;42558;52.388;13.390;2023-06-22T11:56:32;28.26;46.66
57709;SHT35;42558;52.388;13.390;2023-06-22T11:59:01;28.51;45.00
57709;SHT35;42558;52.388;13.390;2023-06-22T12:01:29;28.61;44.64
57709;SHT35;42558;52.388;13.390;2023-06-22T12:03:58;28.70;44.50
57709;SHT35;42558;52.388;13.390;2023-06-22T12:06:26;28.13;44.09
57709;SHT35;42558;52.388;13.390;2023-06-22T12:08:55;27.71;45.64
57709;SHT35;42558;52.388;13.390;2023-06-22T12:11:23;27.86;46.57
57709;SHT35;42558;52.388;13.390;2023-06-22T12:13:51;28.00;45.26
57709;SHT35;42558;52.388;13.390;2023-06-22T12:16:20;27.76;45.82
57709;SHT35;42558;52.388;13.390;2023-06-22T12:18:48;27.66;45.21
57709;SHT35;42558;52.388;13.390;2023-06-22T12:21:17;27.73;45.72
57709;SHT35;42558;52.388;13.390;2023-06-22T12:23:45;27.83;45.56
57709;SHT35;42558;52.388;13.390;2023-06-22T12:26:14;27.84;44.80
57709;SHT35;42558;52.388;13.390;2023-06-22T12:28:44;28.06;44.86
57709;SHT35;42558;52.388;13.390;2023-06-22T12:31:11;28.14;44.81
57709;SHT35;42558;52.388;13.390;2023-06-22T12:33:40;28.25;43.91
57709;SHT35;42558;52.388;13.390;2023-06-22T12:36:08;28.06;44.82
57709;SHT35;42558;52.388;13.390;2023-06-22T12:38:36;27.93;44.85
57709;SHT35;42558;52.388;13.390;2023-06-22T12:41:05;28.08;44.59
57709;SHT35;42558;52.388;13.390;2023-06-22T12:43:33;28.11;44.86
57709;SHT35;42558;52.388;13.390;2023-06-22T12:46:03;28.43;44.87
57709;SHT35;42558;52.388;13.390;2023-06-22T12:48:31;28.56;44.81
57709;SHT35;42558;52.388;13.390;2023-06-22T12:51:00;28.84;44.79
57709;SHT35;42558;52.388;13.390;2023-06-22T12:53:28;28.97;44.06
57709;SHT35;42558;52.388;13.390;2023-06-22T12:55:57;29.08;44.02
57709;SHT35;42558;52.388;13.390;2023-06-22T12:58:25;29.20;43.14
57709;SHT35;42558;52.388;13.390;2023-06-22T13:00:54;28.80;42.86
57709;SHT35;42558;52.388;13.390;2023-06-22T13:03:22;28.54;43.17
57709;SHT35;42558;52.388;13.390;2023-06-22T13:05:54;28.29;44.52
57709;SHT35;42558;52.388;13.390;2023-06-22T13:08:25;28.35;43.41
57709;SHT35;42558;52.388;13.390;2023-06-22T13:11:15;28.47;45.35
57709;SHT35;42558;52.388;13.390;2023-06-22T13:13:45;28.70;44.11
57709;SHT35;42558;52.388;13.390;2023-06-22T13:16:15;28.81;43.72
57709;SHT35;42558;52.388;13.390;2023-06-22T13:18:45;28.50;43.70
57709;SHT35;42558;52.388;13.390;2023-06-22T13:21:15;28.37;43.52
57709;SHT35;42558;52.388;13.390;2023-06-22T13:23:45;28.48;44.21
57709;SHT35;42558;52.388;13.390;2023-06-22T13:26:15;28.75;45.32
57709;SHT35;42558;52.388;13.390;2023-06-22T13:28:45;29.05;44.00
57709;SHT35;42558;52.388;13.390;2023-06-22T13:31:14;28.83;43.40
57709;SHT35;42558;52.388;13.390;2023-06-22T13:33:45;28.70;43.71
57709;SHT35;42558;52.388;13.390;2023-06-22T13:36:17;28.47;44.43
57709;SHT35;42558;52.388;13.390;2023-06-22T13:38:47;28.83;44.58
57709;SHT35;42558;52.388;13.390;2023-06-22T13:41:17;28.87;43.80
57709;SHT35;42558;52.388;13.390;2023-06-22T13:43:47;28.97;44.14
57709;SHT35;42558;52.388;13.390;2023-06-22T13:46:17;28.97;44.00
57709;SHT35;42558;52.388;13.390;2023-06-22T13:48:47;28.82;43.77
57709;SHT35;42558;52.388;13.390;2023-06-22T13:51:17;28.69;43.73
57709;SHT35;42558;52.388;13.390;2023-06-22T13:53:47;28.80;43.96
57709;SHT35;42558;52.388;13.390;2023-06-22T13:56:17;28.84;43.80
57709;SHT35;42558;52.388;13.390;2023-06-22T13:58:47;29.03;44.62
57709;SHT35;42558;52.388;13.390;2023-06-22T14:01:17;29.26;44.32
57709;SHT35;42558;52.388;13.390;2023-06-22T14:03:47;29.24;44.03
57709;SHT35;42558;52.388;13.390;2023-06-22T14:06:18;28.94;43.39
57709;SHT35;42558;52.388;13.390;2023-06-22T14:08:47;28.80;44.17
57709;SHT35;42558;52.388;13.390;2023-06-22T14:11:17;29.05;44.48
57709;SHT35;42558;52.388;13.390;2023-06-22T14:13:47;29.28;43.72
57709;SHT35;42558;52.388;13.390;2023-06-22T14:16:15;29.10;43.40
57709;SHT35;42558;52.388;13.390;2023-06-22T14:18:43;29.03;43.38
57709;SHT35;42558;52.388;13.390;2023-06-22T14:21:14;28.93;44.26
57709;SHT35;42558;52.388;13.390;2023-06-22T14:23:44;29.20;43.78
57709;SHT35;42558;52.388;13.390;2023-06-22T14:26:18;29.24;43.64
57709;SHT35;42558;52.388;13.390;2023-06-22T14:28:49;29.36;43.66
57709;SHT35;42558;52.388;13.390;2023-06-22T14:31:22;29.14;43.43
57709;SHT35;42558;52.388;13.390;2023-06-22T14:33:52;29.04;43.56
57709;SHT35;42558;52.388;13.390;2023-06-22T14:36:22;29.11;43.81
57709;SHT35;42558;52.388;13.390;2023-06-22T14:38:52;29.11;43.91
57709;SHT35;42558;52.388;13.390;2023-06-22T14:41:22;29.17;43.49
57709;SHT35;42558;52.388;13.390;2023-06-22T14:43:52;29.27;43.52
57709;SHT35;42558;52.388;13.390;2023-06-22T14:46:21;29.71;43.51
57709;SHT35;42558;52.388;13.390;2023-06-22T14:48:52;29.91;43.12
57709;SHT35;42558;52.388;13.390;2023-06-22T14:51:22;29.77;43.21
57709;SHT35;42558;52.388;13.390;2023-06-22T14:53:52;29.91;43.42
57709;SHT35;42558;52.388;13.390;2023-06-22T14:56:22;29.93;43.42
57709;SHT35;42558;52.388;13.390;2023-06-22T14:58:52;30.00;42.62
57709;SHT35;42558;52.388;13.390;2023-06-22T15:01:22;29.86;43.49
57709;SHT35;42558;52.388;13.390;2023-06-22T15:03:53;29.89;43.07
57709;SHT35;42558;52.388;13.390;2023-06-22T15:06:23;29.81;42.82
57709;SHT35;42558;52.388;13.390;2023-06-22T15:08:52;29.66;43.19
57709;SHT35;42558;52.388;13.390;2023-06-22T15:11:22;29.69;42.97
57709;SHT35;42558;52.388;13.390;2023-06-22T15:13:52;29.67;43.34
57709;SHT35;42558;52.388;13.390;2023-06-22T15:16:22;29.90;43.70
57709;SHT35;42558;52.388;13.390;2023-06-22T15:18:52;30.07;42.61
57709;SHT35;42558;52.388;13.390;2023-06-22T15:21:22;29.64;42.62
57709;SHT35;42558;52.388;13.390;2023-06-22T15:23:52;29.62;42.69
57709;SHT35;42558;52.388;13.390;2023-06-22T15:26:22;29.46;43.06
57709;SHT35;42558;52.388;13.390;2023-06-22T15:28:52;29.63;43.44
57709;SHT35;42558;52.388;13.390;2023-06-22T15:31:22;29.87;43.38
57709;SHT35;42558;52.388;13.390;2023-06-22T15:33:53;29.72;42.82
57709;SHT35;42558;52.388;13.390;2023-06-22T15:36:21;29.87;42.93
57709;SHT35;42558;52.388;13.390;2023-06-22T15:38:50;30.15;43.49